createdAt,value
2023-03-20T00:00:35.751Z,0
2023-03-20T00:01:35.751Z,0
2023-03-20T00:02:35.761Z,0
2023-03-20T00:03:35.786Z,0
2023-03-20T00:04:35.800Z,0
2023-03-20T00:05:36.033Z,0
2023-03-20T00:06:35.755Z,0
2023-03-20T00:07:35.748Z,0
2023-03-20T00:08:35.752Z,0
2023-03-20T00:09:35.750Z,0
2023-03-20T00:10:35.767Z,0
2023-03-20T00:11:35.752Z,0
2023-03-20T00:12:35.773Z,0
2023-03-20T00:13:35.756Z,0
2023-03-20T00:14:35.750Z,0
2023-03-20T00:15:36.069Z,0
2023-03-20T00:16:35.751Z,0
2023-03-20T00:17:35.746Z,0
2023-03-20T00:18:35.750Z,0
2023-03-20T00:19:35.758Z,0
2023-03-20T00:20:36.055Z,0
2023-03-20T00:21:35.752Z,0
2023-03-20T00:22:35.768Z,0
2023-03-20T00:23:35.753Z,0
2023-03-20T00:24:35.754Z,0
2023-03-20T00:25:36.039Z,0
2023-03-20T00:26:35.755Z,0
2023-03-20T00:27:35.754Z,0
2023-03-20T00:28:35.780Z,0
2023-03-20T00:29:35.754Z,0
2023-03-20T00:30:35.754Z,0
2023-03-20T00:31:35.790Z,0
2023-03-20T00:32:35.822Z,0
2023-03-20T00:33:35.755Z,0
2023-03-20T00:34:35.763Z,0
2023-03-20T00:35:36.005Z,0
2023-03-20T00:36:35.762Z,0
2023-03-20T00:37:35.764Z,0
2023-03-20T00:38:35.769Z,0
2023-03-20T00:39:35.760Z,0
2023-03-20T00:40:35.762Z,0
2023-03-20T00:41:35.765Z,0
2023-03-20T00:42:35.762Z,0
2023-03-20T00:43:35.763Z,0
2023-03-20T00:44:35.944Z,0
2023-03-20T00:45:36.141Z,0
2023-03-20T00:46:35.776Z,0
2023-03-20T00:47:35.763Z,0
2023-03-20T00:48:35.767Z,0
2023-03-20T00:49:35.793Z,0
2023-03-20T00:50:35.767Z,0
2023-03-20T00:51:35.771Z,0
2023-03-20T00:52:35.765Z,0
2023-03-20T00:53:35.767Z,0
2023-03-20T00:54:35.772Z,0
2023-03-20T00:55:36.004Z,0
2023-03-20T00:56:35.767Z,0
2023-03-20T00:57:35.768Z,0
2023-03-20T00:58:35.774Z,0
2023-03-20T00:59:35.772Z,0
2023-03-20T01:00:35.805Z,0
2023-03-20T01:01:35.776Z,0
2023-03-20T01:02:35.782Z,0
2023-03-20T01:03:35.776Z,0
2023-03-20T01:04:35.783Z,0
2023-03-20T01:05:36.005Z,0
2023-03-20T01:06:35.779Z,0
2023-03-20T01:07:35.777Z,0
2023-03-20T01:08:35.779Z,0
2023-03-20T01:09:35.786Z,0
2023-03-20T01:10:35.778Z,0
2023-03-20T01:11:35.780Z,0
2023-03-20T01:12:35.776Z,0
2023-03-20T01:13:35.777Z,0
2023-03-20T01:14:35.783Z,0
2023-03-20T01:15:35.946Z,0
2023-03-20T01:16:35.817Z,0
2023-03-20T01:17:35.780Z,0
2023-03-20T01:18:35.796Z,0
2023-03-20T01:19:35.781Z,0
2023-03-20T01:20:35.786Z,0
2023-03-20T01:21:35.783Z,0
2023-03-20T01:22:35.785Z,0
2023-03-20T01:23:35.777Z,0
2023-03-20T01:24:35.777Z,0
2023-03-20T01:25:36.000Z,0
2023-03-20T01:26:35.778Z,0
2023-03-20T01:27:35.778Z,0
2023-03-20T01:28:35.796Z,0
2023-03-20T01:29:35.782Z,0
2023-03-20T01:30:35.777Z,0
2023-03-20T01:31:35.796Z,0
2023-03-20T01:32:35.863Z,0
2023-03-20T01:33:35.782Z,0
2023-03-20T01:34:35.781Z,0
2023-03-20T01:35:36.084Z,0
2023-03-20T01:36:35.776Z,0
2023-03-20T01:37:35.775Z,0
2023-03-20T01:38:35.782Z,0
2023-03-20T01:39:35.780Z,0
2023-03-20T01:40:35.783Z,0
2023-03-20T01:41:35.776Z,0
2023-03-20T01:42:35.775Z,0
2023-03-20T01:43:35.808Z,0
2023-03-20T01:44:35.790Z,0
2023-03-20T01:45:36.148Z,0
2023-03-20T01:46:35.792Z,0
2023-03-20T01:47:35.792Z,0
2023-03-20T01:48:35.809Z,0
2023-03-20T01:49:35.778Z,0
2023-03-20T01:50:35.796Z,0
2023-03-20T01:51:35.814Z,0
2023-03-20T01:52:35.784Z,0
2023-03-20T01:53:35.783Z,0
2023-03-20T01:54:35.778Z,0
2023-03-20T01:55:36.055Z,0
2023-03-20T01:56:35.785Z,0
2023-03-20T01:57:35.786Z,0
2023-03-20T01:58:35.784Z,0
2023-03-20T01:59:35.820Z,0
2023-03-20T02:00:35.786Z,0
2023-03-20T02:01:35.868Z,0
2023-03-20T02:02:35.784Z,0
2023-03-20T02:03:35.789Z,0
2023-03-20T02:04:35.899Z,0
2023-03-20T02:05:36.056Z,0
2023-03-20T02:06:35.788Z,0
2023-03-20T02:07:35.814Z,0
2023-03-20T02:08:35.789Z,0
2023-03-20T02:09:35.791Z,0
2023-03-20T02:10:35.789Z,0
2023-03-20T02:11:35.790Z,0
2023-03-20T02:12:35.790Z,0
2023-03-20T02:13:35.790Z,0
2023-03-20T02:14:35.788Z,0
2023-03-20T02:15:36.032Z,0
2023-03-20T02:16:35.870Z,0
2023-03-20T02:17:35.789Z,0
2023-03-20T02:18:35.791Z,0
2023-03-20T02:19:35.797Z,0
2023-03-20T02:20:35.814Z,0
2023-03-20T02:21:35.794Z,0
2023-03-20T02:22:35.793Z,0
2023-03-20T02:23:35.789Z,0
2023-03-20T02:24:35.793Z,0
2023-03-20T02:25:35.996Z,0
2023-03-20T02:26:35.794Z,0
2023-03-20T02:27:35.795Z,0
2023-03-20T02:28:35.817Z,0
2023-03-20T02:29:35.798Z,0
2023-03-20T02:30:35.870Z,0
2023-03-20T02:31:35.794Z,0
2023-03-20T02:32:35.822Z,0
2023-03-20T02:33:35.803Z,0
2023-03-20T02:34:35.799Z,0
2023-03-20T02:35:36.057Z,0
2023-03-20T02:36:35.821Z,0
2023-03-20T02:37:35.800Z,0
2023-03-20T02:38:35.798Z,0
2023-03-20T02:39:35.800Z,0
2023-03-20T02:40:35.816Z,0
2023-03-20T02:41:35.811Z,0
2023-03-20T02:42:35.804Z,0
2023-03-20T02:43:35.801Z,0
2023-03-20T02:44:35.803Z,0
2023-03-20T02:45:36.104Z,0
2023-03-20T02:46:35.873Z,0
2023-03-20T02:47:35.799Z,0
2023-03-20T02:48:35.805Z,0
2023-03-20T02:49:35.800Z,0
2023-03-20T02:50:35.801Z,0
2023-03-20T02:51:35.799Z,0
2023-03-20T02:52:35.829Z,0
2023-03-20T02:53:35.807Z,0
2023-03-20T02:54:35.802Z,0
2023-03-20T02:55:35.993Z,0
2023-03-20T02:56:35.802Z,0
2023-03-20T02:57:35.804Z,0
2023-03-20T02:58:35.803Z,0
2023-03-20T02:59:35.809Z,0
2023-03-20T03:00:35.806Z,0
2023-03-20T03:01:35.911Z,0
2023-03-20T03:02:35.824Z,0
2023-03-20T03:03:35.807Z,0
2023-03-20T03:04:35.807Z,0
2023-03-20T03:05:36.138Z,0
2023-03-20T03:06:35.820Z,0
2023-03-20T03:07:35.818Z,0
2023-03-20T03:08:35.841Z,0
2023-03-20T03:09:35.815Z,0
2023-03-20T03:10:35.807Z,0
2023-03-20T03:11:35.812Z,0
2023-03-20T03:12:35.817Z,0
2023-03-20T03:13:35.816Z,0
2023-03-20T03:14:35.819Z,0
2023-03-20T03:15:36.024Z,0
2023-03-20T03:16:35.823Z,0
2023-03-20T03:17:35.814Z,0
2023-03-20T03:18:35.825Z,0
2023-03-20T03:19:35.814Z,0
2023-03-20T03:20:35.813Z,0
2023-03-20T03:21:35.816Z,0
2023-03-20T03:22:35.814Z,0
2023-03-20T03:23:35.821Z,0
2023-03-20T03:24:42.018Z,0
2023-03-20T03:25:36.140Z,0
2023-03-20T03:26:35.813Z,0
2023-03-20T03:27:35.814Z,0
2023-03-20T03:28:35.816Z,0
2023-03-20T03:29:35.811Z,0
2023-03-20T03:30:35.825Z,0
2023-03-20T03:31:35.840Z,0
2023-03-20T03:32:35.891Z,0
2023-03-20T03:33:35.818Z,0
2023-03-20T03:34:35.821Z,0
2023-03-20T03:35:36.055Z,0
2023-03-20T03:36:35.835Z,0
2023-03-20T03:37:35.817Z,0
2023-03-20T03:38:35.813Z,0
2023-03-20T03:39:35.816Z,0
2023-03-20T03:40:35.840Z,0
2023-03-20T03:41:35.817Z,0
2023-03-20T03:42:35.829Z,0
2023-03-20T03:43:35.814Z,0
2023-03-20T03:44:35.820Z,0
2023-03-20T03:45:36.000Z,0
2023-03-20T03:46:35.889Z,0
2023-03-20T03:47:35.814Z,0
2023-03-20T03:48:35.814Z,0
2023-03-20T03:49:35.818Z,0
2023-03-20T03:50:35.819Z,0
2023-03-20T03:51:35.821Z,0
2023-03-20T03:52:35.822Z,0
2023-03-20T03:53:35.815Z,0
2023-03-20T03:54:35.818Z,0
2023-03-20T03:55:36.145Z,0
2023-03-20T03:56:35.841Z,0
2023-03-20T03:57:35.819Z,0
2023-03-20T03:58:35.820Z,0
2023-03-20T03:59:35.823Z,0
2023-03-20T04:00:35.824Z,0
2023-03-20T04:01:35.888Z,0
2023-03-20T04:02:35.822Z,0
2023-03-20T04:03:35.818Z,0
2023-03-20T04:04:35.873Z,0
2023-03-20T04:05:36.004Z,0
2023-03-20T04:06:35.821Z,0
2023-03-20T04:07:35.823Z,0
2023-03-20T04:08:35.822Z,0
2023-03-20T04:09:35.822Z,0
2023-03-20T04:10:35.821Z,0
2023-03-20T04:11:35.827Z,0
2023-03-20T04:12:35.864Z,0
2023-03-20T04:13:35.821Z,0
2023-03-20T04:14:35.826Z,0
2023-03-20T04:15:36.113Z,0
2023-03-20T04:16:35.892Z,0
2023-03-20T04:17:35.827Z,0
2023-03-20T04:18:35.830Z,0
2023-03-20T04:19:35.828Z,0
2023-03-20T04:20:35.826Z,0
2023-03-20T04:21:35.834Z,0
2023-03-20T04:22:35.827Z,0
2023-03-20T04:23:35.832Z,0
2023-03-20T04:24:35.845Z,0
2023-03-20T04:25:36.052Z,0
2023-03-20T04:26:35.839Z,0
2023-03-20T04:27:35.834Z,0
2023-03-20T04:28:35.862Z,0
2023-03-20T04:29:38.151Z,0
2023-03-20T04:30:35.834Z,0
2023-03-20T04:31:35.962Z,0
2023-03-20T04:32:35.843Z,0
2023-03-20T04:33:35.838Z,0
2023-03-20T04:34:35.836Z,0
2023-03-20T04:35:36.212Z,0
2023-03-20T04:36:35.837Z,0
2023-03-20T04:37:35.830Z,0
2023-03-20T04:38:35.839Z,0
2023-03-20T04:39:35.852Z,0
2023-03-20T04:40:35.839Z,0
2023-03-20T04:41:35.835Z,0
2023-03-20T04:42:35.839Z,0
2023-03-20T04:43:35.835Z,0
2023-03-20T04:44:35.861Z,0
2023-03-20T04:45:36.082Z,0
2023-03-20T04:46:35.835Z,0
2023-03-20T04:47:35.834Z,0
2023-03-20T04:48:35.844Z,0
2023-03-20T04:49:35.847Z,0
2023-03-20T04:50:35.843Z,0
2023-03-20T04:51:35.843Z,0
2023-03-20T04:52:35.839Z,0
2023-03-20T04:53:35.834Z,0
2023-03-20T04:54:35.832Z,0
2023-03-20T04:55:36.088Z,0
2023-03-20T04:56:35.835Z,0
2023-03-20T04:57:35.836Z,0
2023-03-20T04:58:35.837Z,0
2023-03-20T04:59:35.839Z,0
2023-03-20T05:00:35.862Z,0
2023-03-20T05:01:35.839Z,1
2023-03-20T05:02:35.837Z,1
2023-03-20T05:03:35.841Z,1
2023-03-20T05:04:35.838Z,1
2023-03-20T05:05:35.985Z,1
2023-03-20T05:06:35.856Z,2
2023-03-20T05:07:35.839Z,2
2023-03-20T05:08:35.848Z,2
2023-03-20T05:09:35.843Z,2
2023-03-20T05:10:35.840Z,2
2023-03-20T05:11:35.838Z,3
2023-03-20T05:12:35.841Z,3
2023-03-20T05:13:35.842Z,3
2023-03-20T05:14:35.842Z,3
2023-03-20T05:15:35.997Z,3
2023-03-20T05:16:35.896Z,4
2023-03-20T05:17:35.843Z,5
2023-03-20T05:18:35.845Z,5
2023-03-20T05:19:35.840Z,5
2023-03-20T05:20:35.842Z,5
2023-03-20T05:21:35.842Z,5
2023-03-20T05:22:35.843Z,7
2023-03-20T05:23:35.843Z,7
2023-03-20T05:24:35.846Z,7
2023-03-20T05:25:36.277Z,7
2023-03-20T05:26:35.847Z,7
2023-03-20T05:27:35.846Z,10
2023-03-20T05:28:35.843Z,10
2023-03-20T05:29:35.857Z,10
2023-03-20T05:30:35.901Z,10
2023-03-20T05:31:35.846Z,10
2023-03-20T05:32:35.897Z,12
2023-03-20T05:33:38.021Z,12
2023-03-20T05:34:35.847Z,12
2023-03-20T05:35:36.157Z,12
2023-03-20T05:36:35.851Z,12
2023-03-20T05:37:35.855Z,16
2023-03-20T05:38:35.852Z,16
2023-03-20T05:39:35.863Z,16
2023-03-20T05:40:35.851Z,16
2023-03-20T05:41:35.854Z,16
2023-03-20T05:42:35.852Z,17
2023-03-20T05:43:35.852Z,17
2023-03-20T05:44:35.851Z,17
2023-03-20T05:45:36.151Z,17
2023-03-20T05:46:35.885Z,17
2023-03-20T05:47:35.858Z,20
2023-03-20T05:48:35.878Z,20
2023-03-20T05:49:35.857Z,20
2023-03-20T05:50:35.854Z,20
2023-03-20T05:51:35.858Z,20
2023-03-20T05:52:35.856Z,26
2023-03-20T05:53:35.858Z,26
2023-03-20T05:54:35.854Z,26
2023-03-20T05:55:36.181Z,26
2023-03-20T05:56:35.881Z,26
2023-03-20T05:57:35.873Z,43
2023-03-20T05:58:35.861Z,43
2023-03-20T05:59:35.857Z,43
2023-03-20T06:00:35.876Z,43
2023-03-20T06:01:35.861Z,43
2023-03-20T06:02:35.884Z,65
2023-03-20T06:03:35.900Z,65
2023-03-20T06:04:35.886Z,65
2023-03-20T06:05:36.163Z,65
2023-03-20T06:06:35.868Z,65
2023-03-20T06:07:35.869Z,91
2023-03-20T06:08:35.866Z,91
2023-03-20T06:09:35.865Z,91
2023-03-20T06:10:35.866Z,91
2023-03-20T06:11:37.532Z,91
2023-03-20T06:12:35.875Z,107
2023-03-20T06:13:35.872Z,107
2023-03-20T06:14:35.869Z,107
2023-03-20T06:15:36.180Z,107
2023-03-20T06:16:35.877Z,107
2023-03-20T06:17:35.873Z,123
2023-03-20T06:18:35.879Z,123
2023-03-20T06:19:35.873Z,123
2023-03-20T06:20:35.902Z,123
2023-03-20T06:21:35.877Z,123
2023-03-20T06:22:35.883Z,112
2023-03-20T06:23:35.871Z,112
2023-03-20T06:24:35.875Z,112
2023-03-20T06:25:36.166Z,116
2023-03-20T06:26:35.875Z,116
2023-03-20T06:27:35.873Z,116
2023-03-20T06:28:35.875Z,116
2023-03-20T06:29:35.881Z,116
2023-03-20T06:30:35.878Z,127
2023-03-20T06:31:35.955Z,127
2023-03-20T06:32:35.950Z,127
2023-03-20T06:33:35.878Z,127
2023-03-20T06:34:35.885Z,127
2023-03-20T06:35:36.160Z,147
2023-03-20T06:36:35.902Z,147
2023-03-20T06:37:35.873Z,147
2023-03-20T06:38:35.875Z,147
2023-03-20T06:39:35.876Z,147
2023-03-20T06:40:35.880Z,167
2023-03-20T06:41:35.878Z,167
2023-03-20T06:42:35.878Z,167
2023-03-20T06:43:35.884Z,167
2023-03-20T06:44:35.892Z,167
2023-03-20T06:45:36.196Z,182
2023-03-20T06:46:35.990Z,182
2023-03-20T06:47:35.883Z,182
2023-03-20T06:48:35.881Z,182
2023-03-20T06:49:35.896Z,182
2023-03-20T06:50:35.917Z,213
2023-03-20T06:51:35.889Z,213
2023-03-20T06:52:35.912Z,213
2023-03-20T06:53:35.887Z,266
2023-03-20T06:54:35.883Z,226
2023-03-20T06:55:36.161Z,226
2023-03-20T06:56:35.893Z,226
2023-03-20T06:57:35.902Z,226
2023-03-20T06:58:35.884Z,226
2023-03-20T06:59:35.891Z,238
2023-03-20T07:00:35.886Z,238
2023-03-20T07:01:35.947Z,238
2023-03-20T07:02:35.885Z,238
2023-03-20T07:03:35.886Z,238
2023-03-20T07:04:35.947Z,224
2023-03-20T07:05:36.143Z,224
2023-03-20T07:06:35.898Z,224
2023-03-20T07:07:35.889Z,224
2023-03-20T07:08:35.918Z,224
2023-03-20T07:09:35.898Z,215
2023-03-20T07:10:35.892Z,215
2023-03-20T07:11:35.896Z,262
2023-03-20T07:12:35.893Z,224
2023-03-20T07:13:35.894Z,224
2023-03-20T07:14:35.894Z,224
2023-03-20T07:15:36.102Z,224
2023-03-20T07:16:35.970Z,224
2023-03-20T07:17:35.897Z,250
2023-03-20T07:18:35.902Z,250
2023-03-20T07:19:37.999Z,250
2023-03-20T07:20:35.905Z,250
2023-03-20T07:21:35.899Z,250
2023-03-20T07:22:35.899Z,266
2023-03-20T07:23:35.899Z,266
2023-03-20T07:24:35.925Z,266
2023-03-20T07:25:42.745Z,266
2023-03-20T07:26:35.900Z,266
2023-03-20T07:27:35.899Z,276
2023-03-20T07:28:35.900Z,276
2023-03-20T07:29:35.903Z,276
2023-03-20T07:30:35.898Z,276
2023-03-20T07:31:36.016Z,276
2023-03-20T07:32:37.689Z,281
2023-03-20T07:33:35.902Z,281
2023-03-20T07:34:35.902Z,281
2023-03-20T07:35:36.278Z,281
2023-03-20T07:36:35.902Z,281
2023-03-20T07:37:35.899Z,270
2023-03-20T07:38:35.905Z,270
2023-03-20T07:39:35.898Z,270
2023-03-20T07:40:35.922Z,270
2023-03-20T07:41:35.897Z,270
2023-03-20T07:42:35.900Z,240
2023-03-20T07:43:35.896Z,240
2023-03-20T07:44:35.903Z,240
2023-03-20T07:45:36.149Z,240
2023-03-20T07:46:35.901Z,240
2023-03-20T07:47:35.908Z,230
2023-03-20T07:48:35.906Z,230
2023-03-20T07:49:35.904Z,230
2023-03-20T07:50:35.904Z,230
2023-03-20T07:51:35.914Z,230
2023-03-20T07:52:35.901Z,290
2023-03-20T07:53:35.920Z,290
2023-03-20T07:54:35.919Z,290
2023-03-20T07:55:36.128Z,290
2023-03-20T07:56:35.928Z,290
2023-03-20T07:57:35.900Z,347
2023-03-20T07:58:35.906Z,347
2023-03-20T07:59:35.907Z,347
2023-03-20T08:00:35.954Z,347
2023-03-20T08:01:35.928Z,347
2023-03-20T08:02:35.957Z,430
2023-03-20T08:03:35.998Z,430
2023-03-20T08:04:35.909Z,430
2023-03-20T08:05:36.206Z,430
2023-03-20T08:06:35.909Z,430
2023-03-20T08:07:35.907Z,513
2023-03-20T08:08:35.915Z,513
2023-03-20T08:09:35.908Z,513
2023-03-20T08:10:35.913Z,513
2023-03-20T08:11:35.917Z,513
2023-03-20T08:12:35.939Z,525
2023-03-20T08:13:35.929Z,525
2023-03-20T08:14:36.278Z,525
2023-03-20T08:15:36.175Z,525
2023-03-20T08:16:36.006Z,525
2023-03-20T08:17:35.993Z,482
2023-03-20T08:18:35.925Z,482
2023-03-20T08:19:35.922Z,482
2023-03-20T08:20:35.938Z,482
2023-03-20T08:21:35.924Z,482
2023-03-20T08:22:35.921Z,444
2023-03-20T08:23:35.925Z,444
2023-03-20T08:24:35.926Z,444
2023-03-20T08:25:36.190Z,444
2023-03-20T08:26:35.925Z,444
2023-03-20T08:27:35.938Z,500
2023-03-20T08:28:46.893Z,500
2023-03-20T08:29:35.927Z,500
2023-03-20T08:30:35.943Z,500
2023-03-20T08:31:35.925Z,500
2023-03-20T08:32:35.967Z,583
2023-03-20T08:33:35.933Z,583
2023-03-20T08:34:35.929Z,583
2023-03-20T08:35:36.015Z,583
2023-03-20T08:36:35.930Z,583
2023-03-20T08:37:35.932Z,693
2023-03-20T08:38:36.044Z,693
2023-03-20T08:39:35.957Z,693
2023-03-20T08:40:35.932Z,693
2023-03-20T08:41:35.937Z,693
2023-03-20T08:42:35.939Z,705
2023-03-20T08:43:35.938Z,705
2023-03-20T08:44:35.977Z,705
2023-03-20T08:45:36.164Z,705
2023-03-20T08:46:35.967Z,705
2023-03-20T08:47:35.947Z,602
2023-03-20T08:48:35.940Z,602
2023-03-20T08:49:35.937Z,602
2023-03-20T08:50:35.943Z,602
2023-03-20T08:51:35.940Z,602
2023-03-20T08:52:36.014Z,612
2023-03-20T08:53:35.936Z,612
2023-03-20T08:54:35.938Z,612
2023-03-20T08:55:36.289Z,612
2023-03-20T08:56:35.941Z,612
2023-03-20T08:57:35.943Z,618
2023-03-20T08:58:35.944Z,618
2023-03-20T08:59:35.940Z,618
2023-03-20T09:00:35.985Z,618
2023-03-20T09:01:48.569Z,618
2023-03-20T09:02:36.114Z,585
2023-03-20T09:03:35.940Z,585
2023-03-20T09:04:35.968Z,585
2023-03-20T09:05:36.263Z,585
2023-03-20T09:06:35.957Z,585
2023-03-20T09:07:35.941Z,714
2023-03-20T09:08:35.941Z,714
2023-03-20T09:09:35.945Z,714
2023-03-20T09:10:35.969Z,714
2023-03-20T09:11:35.946Z,714
2023-03-20T09:12:36.005Z,857
2023-03-20T09:13:35.960Z,857
2023-03-20T09:14:35.948Z,857
2023-03-20T09:15:36.325Z,857
2023-03-20T09:16:36.162Z,857
2023-03-20T09:17:35.958Z,909
2023-03-20T09:18:35.957Z,909
2023-03-20T09:19:35.947Z,909
2023-03-20T09:20:36.131Z,909
2023-03-20T09:21:35.952Z,909
2023-03-20T09:22:35.960Z,869
2023-03-20T09:23:35.954Z,869
2023-03-20T09:24:35.950Z,869
2023-03-20T09:25:36.169Z,869
2023-03-20T09:26:35.975Z,869
2023-03-20T09:27:35.958Z,873
2023-03-20T09:28:35.953Z,873
2023-03-20T09:29:35.964Z,873
2023-03-20T09:30:36.143Z,873
2023-03-20T09:31:36.060Z,873
2023-03-20T09:32:36.085Z,1141
2023-03-20T09:33:35.964Z,1141
2023-03-20T09:34:35.958Z,1141
2023-03-20T09:35:35.982Z,1141
2023-03-20T09:36:35.954Z,1141
2023-03-20T09:37:35.956Z,1300
2023-03-20T09:38:35.960Z,1300
2023-03-20T09:39:35.977Z,1300
2023-03-20T09:40:36.227Z,1300
2023-03-20T09:41:45.747Z,1300
2023-03-20T09:42:35.961Z,1064
2023-03-20T09:43:35.966Z,1064
2023-03-20T09:44:35.970Z,1064
2023-03-20T09:45:35.966Z,1064
2023-03-20T09:46:36.021Z,1064
2023-03-20T09:47:35.964Z,959
2023-03-20T09:48:35.991Z,959
2023-03-20T09:49:35.985Z,959
2023-03-20T09:50:36.175Z,959
2023-03-20T09:51:35.963Z,959
2023-03-20T09:52:35.960Z,903
2023-03-20T09:53:35.963Z,903
2023-03-20T09:54:50.929Z,903
2023-03-20T09:55:36.383Z,903
2023-03-20T09:56:35.970Z,903
2023-03-20T09:57:35.966Z,1070
2023-03-20T09:58:35.962Z,1039
2023-03-20T09:59:35.986Z,1039
2023-03-20T10:00:36.268Z,1039
2023-03-20T10:01:38.362Z,1039
2023-03-20T10:02:35.970Z,1039
2023-03-20T10:03:35.979Z,1128
2023-03-20T10:04:36.011Z,1128
2023-03-20T10:05:36.118Z,1128
2023-03-20T10:06:35.983Z,1128
2023-03-20T10:07:35.969Z,1128
2023-03-20T10:08:35.967Z,1248
2023-03-20T10:09:35.968Z,1248
2023-03-20T10:10:36.191Z,1248
2023-03-20T10:11:35.970Z,1248
2023-03-20T10:12:35.978Z,1248
2023-03-20T10:13:35.978Z,1266
2023-03-20T10:14:35.974Z,1266
2023-03-20T10:15:35.969Z,1266
2023-03-20T10:16:36.047Z,1266
2023-03-20T10:17:35.969Z,1266
2023-03-20T10:18:35.974Z,1452
2023-03-20T10:19:35.966Z,1452
2023-03-20T10:20:36.389Z,1452
2023-03-20T10:21:35.972Z,1452
2023-03-20T10:22:35.971Z,1452
2023-03-20T10:23:35.981Z,1520
2023-03-20T10:24:35.978Z,1520
2023-03-20T10:25:35.979Z,1520
2023-03-20T10:26:35.990Z,1520
2023-03-20T10:27:35.979Z,1520
2023-03-20T10:28:35.976Z,1585
2023-03-20T10:29:35.976Z,1585
2023-03-20T10:30:36.230Z,1585
2023-03-20T10:31:36.011Z,1585
2023-03-20T10:32:36.036Z,1585
2023-03-20T10:33:35.978Z,1778
2023-03-20T10:34:35.985Z,1778
2023-03-20T10:35:35.985Z,1778
2023-03-20T10:36:36.053Z,1778
2023-03-20T10:37:35.996Z,1778
2023-03-20T10:38:35.978Z,1623
2023-03-20T10:39:35.987Z,1623
2023-03-20T10:40:36.234Z,1623
2023-03-20T10:41:35.989Z,1623
2023-03-20T10:42:35.980Z,1623
2023-03-20T10:43:38.908Z,1441
2023-03-20T10:44:35.981Z,1441
2023-03-20T10:45:35.981Z,1441
2023-03-20T10:46:36.049Z,1441
2023-03-20T10:47:36.015Z,1441
2023-03-20T10:48:35.984Z,1403
2023-03-20T10:49:35.984Z,1403
2023-03-20T10:50:36.229Z,1403
2023-03-20T10:51:35.993Z,1403
2023-03-20T10:52:36.010Z,1403
2023-03-20T10:53:35.993Z,1454
2023-03-20T10:54:35.983Z,1454
2023-03-20T10:55:35.990Z,1454
2023-03-20T10:56:36.060Z,1454
2023-03-20T10:57:35.986Z,1454
2023-03-20T10:58:36.000Z,1558
2023-03-20T10:59:35.985Z,1558
2023-03-20T11:00:36.122Z,1558
2023-03-20T11:01:36.145Z,1558
2023-03-20T11:02:35.990Z,1558
2023-03-20T11:03:35.993Z,1742
2023-03-20T11:04:36.067Z,1742
2023-03-20T11:05:35.998Z,1742
2023-03-20T11:06:35.995Z,1742
2023-03-20T11:07:35.994Z,1742
2023-03-20T11:08:36.019Z,1748
2023-03-20T11:09:35.998Z,1748
2023-03-20T11:10:36.292Z,1748
2023-03-20T11:11:35.998Z,1748
2023-03-20T11:12:36.001Z,1748
2023-03-20T11:13:36.006Z,1845
2023-03-20T11:14:36.001Z,1845
2023-03-20T11:15:36.005Z,1845
2023-03-20T11:16:36.085Z,1845
2023-03-20T11:17:36.002Z,1845
2023-03-20T11:18:36.005Z,1780
2023-03-20T11:19:36.012Z,1780
2023-03-20T11:20:36.337Z,1780
2023-03-20T11:21:36.006Z,1780
2023-03-20T11:22:36.034Z,1780
2023-03-20T11:23:36.017Z,1562
2023-03-20T11:24:36.031Z,1562
2023-03-20T11:25:36.005Z,1562
2023-03-20T11:26:36.024Z,1562
2023-03-20T11:27:36.012Z,1562
2023-03-20T11:28:36.018Z,1930
2023-03-20T11:29:36.023Z,1930
2023-03-20T11:30:36.265Z,1930
2023-03-20T11:31:36.096Z,1930
2023-03-20T11:32:36.099Z,1930
2023-03-20T11:33:36.012Z,2402
2023-03-20T11:34:36.014Z,2402
2023-03-20T11:35:36.083Z,2402
2023-03-20T11:36:36.012Z,2402
2023-03-20T11:37:36.027Z,2402
2023-03-20T11:38:36.011Z,2664
2023-03-20T11:39:36.010Z,2664
2023-03-20T11:40:36.235Z,2664
2023-03-20T11:41:36.011Z,2664
2023-03-20T11:42:36.009Z,2664
2023-03-20T11:43:36.010Z,2499
2023-03-20T11:44:36.010Z,2510
2023-03-20T11:45:36.028Z,2471
2023-03-20T11:46:36.010Z,2471
2023-03-20T11:47:36.033Z,2471
2023-03-20T11:48:36.030Z,2471
2023-03-20T11:49:36.014Z,2471
2023-03-20T11:50:36.315Z,2875
2023-03-20T11:51:36.016Z,2875
2023-03-20T11:52:36.015Z,2875
2023-03-20T11:53:36.072Z,2875
2023-03-20T11:54:36.015Z,2875
2023-03-20T11:55:36.045Z,2352
2023-03-20T11:56:36.043Z,2352
2023-03-20T11:57:36.040Z,2352
2023-03-20T11:58:36.020Z,2352
2023-03-20T11:59:36.024Z,2352
2023-03-20T12:00:36.471Z,2290
2023-03-20T12:01:36.024Z,2290
2023-03-20T12:02:36.153Z,2290
2023-03-20T12:03:36.083Z,2290
2023-03-20T12:04:36.023Z,2837
2023-03-20T12:05:36.063Z,2837
2023-03-20T12:06:36.026Z,2837
2023-03-20T12:07:36.026Z,2837
2023-03-20T12:08:36.028Z,2837
2023-03-20T12:09:36.027Z,3708
2023-03-20T12:10:36.365Z,3708
2023-03-20T12:11:36.033Z,3708
2023-03-20T12:12:36.060Z,3708
2023-03-20T12:13:36.033Z,3708
2023-03-20T12:14:36.029Z,4047
2023-03-20T12:15:36.169Z,4047
2023-03-20T12:16:36.037Z,3769
2023-03-20T12:17:36.036Z,3568
2023-03-20T12:18:36.078Z,3568
2023-03-20T12:19:36.029Z,3568
2023-03-20T12:20:36.216Z,8576
2023-03-20T12:21:36.049Z,7973
2023-03-20T12:22:36.032Z,3833
2023-03-20T12:23:36.034Z,3418
2023-03-20T12:24:36.031Z,3352
2023-03-20T12:25:36.030Z,3786
2023-03-20T12:26:36.040Z,4365
2023-03-20T12:27:36.034Z,9154
2023-03-20T12:28:36.088Z,9126
2023-03-20T12:29:36.035Z,8672
2023-03-20T12:30:36.279Z,9300
2023-03-20T12:31:36.147Z,5435
2023-03-20T12:32:36.101Z,5435
2023-03-20T12:33:36.035Z,8910
2023-03-20T12:34:36.034Z,8377
2023-03-20T12:35:36.055Z,8087
2023-03-20T12:36:36.074Z,8762
2023-03-20T12:37:36.036Z,8762
2023-03-20T12:38:36.034Z,5133
2023-03-20T12:39:36.036Z,3784
2023-03-20T12:40:36.243Z,3784
2023-03-20T12:41:36.038Z,3560
2023-03-20T12:42:36.037Z,3560
2023-03-20T12:43:36.037Z,3560
2023-03-20T12:44:36.061Z,2877
2023-03-20T12:45:36.041Z,2842
2023-03-20T12:46:36.045Z,2842
2023-03-20T12:47:36.041Z,2842
2023-03-20T12:48:36.039Z,2842
2023-03-20T12:49:36.055Z,2615
2023-03-20T12:50:36.429Z,2615
2023-03-20T12:51:36.042Z,2615
2023-03-20T12:52:36.041Z,3189
2023-03-20T12:53:36.043Z,2661
2023-03-20T12:54:36.042Z,2595
2023-03-20T12:55:36.049Z,2595
2023-03-20T12:56:36.046Z,2595
2023-03-20T12:57:36.047Z,2014
2023-03-20T12:58:36.043Z,2028
2023-03-20T12:59:36.047Z,7155
2023-03-20T13:00:36.482Z,2724
2023-03-20T13:01:36.065Z,2724
2023-03-20T13:02:36.159Z,2724
2023-03-20T13:03:36.058Z,2680
2023-03-20T13:04:36.049Z,2680
2023-03-20T13:05:36.049Z,2680
2023-03-20T13:06:36.048Z,2680
2023-03-20T13:07:36.047Z,2680
2023-03-20T13:08:36.048Z,1963
2023-03-20T13:09:36.059Z,1963
2023-03-20T13:10:36.288Z,1963
2023-03-20T13:11:36.049Z,1963
2023-03-20T13:12:36.051Z,1963
2023-03-20T13:13:36.051Z,2035
2023-03-20T13:14:36.051Z,2035
2023-03-20T13:15:36.048Z,2035
2023-03-20T13:16:36.227Z,2035
2023-03-20T13:17:36.055Z,2237
2023-03-20T13:18:36.056Z,2213
2023-03-20T13:19:36.052Z,2352
2023-03-20T13:20:36.401Z,2332
2023-03-20T13:21:38.137Z,2332
2023-03-20T13:22:36.051Z,2332
2023-03-20T13:23:36.050Z,2879
2023-03-20T13:24:36.051Z,2879
2023-03-20T13:25:36.297Z,2879
2023-03-20T13:26:36.055Z,2879
2023-03-20T13:27:36.052Z,2879
2023-03-20T13:28:36.050Z,2681
2023-03-20T13:29:36.051Z,3424
2023-03-20T13:30:36.310Z,3424
2023-03-20T13:31:36.167Z,3424
2023-03-20T13:32:36.138Z,3424
2023-03-20T13:33:36.054Z,3424
2023-03-20T13:34:36.058Z,2600
2023-03-20T13:35:36.138Z,2600
2023-03-20T13:36:36.073Z,2600
2023-03-20T13:37:36.123Z,2600
2023-03-20T13:38:36.058Z,6691
2023-03-20T13:39:36.060Z,4942
2023-03-20T13:40:36.218Z,3035
2023-03-20T13:41:36.065Z,2781
2023-03-20T13:42:36.055Z,2781
2023-03-20T13:43:36.065Z,2347
2023-03-20T13:44:36.057Z,2115
2023-03-20T13:45:36.077Z,2030
2023-03-20T13:46:36.106Z,1984
2023-03-20T13:47:36.062Z,1979
2023-03-20T13:48:36.138Z,2128
2023-03-20T13:49:36.054Z,2460
2023-03-20T13:50:36.225Z,2378
2023-03-20T13:51:36.058Z,2378
2023-03-20T13:52:36.070Z,1957
2023-03-20T13:53:36.061Z,1987
2023-03-20T13:54:36.059Z,1955
2023-03-20T13:55:36.317Z,1955
2023-03-20T13:56:36.107Z,1955
2023-03-20T13:57:36.062Z,2123
2023-03-20T13:58:36.062Z,2100
2023-03-20T13:59:36.085Z,2098
2023-03-20T14:00:36.356Z,2098
2023-03-20T14:01:36.055Z,2098